sensor_id;sensor_type;location;lat;lon;timestamp;pressure;altitude;pressure_sealevel;temperature;humidity
77452;BME280;66537;52.370;4.832;2023-02-15T00:01:39;103030.69;;;5.42;81.27
77452;BME280;66537;52.370;4.832;2023-02-15T00:04:06;103023.66;;;5.35;81.10
77452;BME280;66537;52.370;4.832;2023-02-15T00:06:32;103020.97;;;5.31;81.06
77452;BME280;66537;52.370;4.832;2023-02-15T00:08:58;103016.56;;;5.27;81.21
77452;BME280;66537;52.370;4.832;2023-02-15T00:11:24;103014.09;;;5.30;81.66
77452;BME280;66537;52.370;4.832;2023-02-15T00:14:12;102984.59;;;5.14;81.31
77452;BME280;66537;52.370;4.832;2023-02-15T00:16:39;103009.06;;;5.34;81.12
77452;BME280;66537;52.370;4.832;2023-02-15T00:19:05;102997.28;;;5.41;81.00
77452;BME280;66537;52.370;4.832;2023-02-15T00:21:32;103000.84;;;5.46;81.00
77452;BME280;66537;52.370;4.832;2023-02-15T00:23:59;102994.88;;;5.47;80.85
77452;BME280;66537;52.370;4.832;2023-02-15T00:26:26;102993.34;;;5.53;80.43
77452;BME280;66537;52.370;4.832;2023-02-15T00:28:51;102989.03;;;5.53;80.36
77452;BME280;66537;52.370;4.832;2023-02-15T00:31:17;102981.28;;;5.49;80.33
77452;BME280;66537;52.370;4.832;2023-02-15T00:33:42;102977.06;;;5.52;80.37
77452;BME280;66537;52.370;4.832;2023-02-15T00:36:09;102983.91;;;5.53;80.43
77452;BME280;66537;52.370;4.832;2023-02-15T00:38:36;102973.69;;;5.56;80.76
77452;BME280;66537;52.370;4.832;2023-02-15T00:41:04;102977.72;;;5.46;81.16
77452;BME280;66537;52.370;4.832;2023-02-15T00:43:31;102974.13;;;5.38;81.01
77452;BME280;66537;52.370;4.832;2023-02-15T00:45:56;102974.41;;;5.17;81.29
77452;BME280;66537;52.370;4.832;2023-02-15T00:48:22;102966.97;;;5.26;81.46
77452;BME280;66537;52.370;4.832;2023-02-15T00:50:54;102971.38;;;5.32;81.53
77452;BME280;66537;52.370;4.832;2023-02-15T00:53:20;102969.72;;;5.34;81.72
77452;BME280;66537;52.370;4.832;2023-02-15T00:55:45;102962.72;;;5.28;81.77
77452;BME280;66537;52.370;4.832;2023-02-15T00:58:12;102970.69;;;5.37;81.28
77452;BME280;66537;52.370;4.832;2023-02-15T01:00:38;102968.13;;;5.37;81.07
77452;BME280;66537;52.370;4.832;2023-02-15T01:03:04;102969.06;;;5.41;80.91
77452;BME280;66537;52.370;4.832;2023-02-15T01:05:30;102964.84;;;5.43;80.47
77452;BME280;66537;52.370;4.832;2023-02-15T01:07:56;102961.28;;;5.38;80.20
77452;BME280;66537;52.370;4.832;2023-02-15T01:10:22;102961.03;;;5.29;80.67
77452;BME280;66537;52.370;4.832;2023-02-15T01:12:47;102961.97;;;5.32;80.41
77452;BME280;66537;52.370;4.832;2023-02-15T01:15:13;102958.56;;;5.32;80.34
77452;BME280;66537;52.370;4.832;2023-02-15T01:17:38;102962.19;;;5.40;80.33
77452;BME280;66537;52.370;4.832;2023-02-15T01:20:06;102951.69;;;5.32;80.03
77452;BME280;66537;52.370;4.832;2023-02-15T01:22:32;102935.38;;;5.29;79.89
77452;BME280;66537;52.370;4.832;2023-02-15T01:24:57;102951.66;;;5.31;79.81
77452;BME280;66537;52.370;4.832;2023-02-15T01:27:23;102934.44;;;5.27;80.63
77452;BME280;66537;52.370;4.832;2023-02-15T01:29:48;102943.81;;;5.25;81.11
77452;BME280;66537;52.370;4.832;2023-02-15T01:32:14;102939.72;;;5.31;80.61
77452;BME280;66537;52.370;4.832;2023-02-15T01:34:39;102938.06;;;5.33;80.62
77452;BME280;66537;52.370;4.832;2023-02-15T01:37:04;102939.00;;;5.37;80.58
77452;BME280;66537;52.370;4.832;2023-02-15T01:39:29;102932.25;;;5.40;80.41
77452;BME280;66537;52.370;4.832;2023-02-15T01:41:55;102929.63;;;5.37;80.73
77452;BME280;66537;52.370;4.832;2023-02-15T01:44:57;102926.13;;;5.35;80.48
77452;BME280;66537;52.370;4.832;2023-02-15T01:47:42;102924.38;;;5.34;80.43
77452;BME280;66537;52.370;4.832;2023-02-15T01:50:28;102913.75;;;5.21;80.75
77452;BME280;66537;52.370;4.832;2023-02-15T01:53:19;102927.59;;;5.26;81.28
77452;BME280;66537;52.370;4.832;2023-02-15T01:55:57;102922.44;;;5.24;80.96
77452;BME280;66537;52.370;4.832;2023-02-15T01:58:26;102911.16;;;5.19;80.62
77452;BME280;66537;52.370;4.832;2023-02-15T02:00:53;102912.81;;;5.17;80.05
77452;BME280;66537;52.370;4.832;2023-02-15T02:03:53;102917.22;;;5.21;80.17
77452;BME280;66537;52.370;4.832;2023-02-15T02:06:15;102911.06;;;5.15;80.25
77452;BME280;66537;52.370;4.832;2023-02-15T02:08:41;102909.38;;;5.17;80.23
77452;BME280;66537;52.370;4.832;2023-02-15T02:11:14;102909.09;;;5.06;80.00
77452;BME280;66537;52.370;4.832;2023-02-15T02:13:40;102912.47;;;5.05;80.08
77452;BME280;66537;52.370;4.832;2023-02-15T02:24:23;102907.22;;;4.99;80.10
77452;BME280;66537;52.370;4.832;2023-02-15T02:36:58;102887.91;;;4.82;79.87
77452;BME280;66537;52.370;4.832;2023-02-15T02:45:00;102886.91;;;4.76;80.31
77452;BME280;66537;52.370;4.832;2023-02-15T02:47:35;102868.78;;;4.70;80.30
77452;BME280;66537;52.370;4.832;2023-02-15T02:50:07;102872.13;;;4.67;79.98
77452;BME280;66537;52.370;4.832;2023-02-15T02:52:44;102856.84;;;4.70;80.29
77452;BME280;66537;52.370;4.832;2023-02-15T02:58:01;102852.75;;;4.78;80.25
77452;BME280;66537;52.370;4.832;2023-02-15T03:00:32;102851.19;;;4.82;80.31
77452;BME280;66537;52.370;4.832;2023-02-15T03:03:07;102848.53;;;4.80;80.21
77452;BME280;66537;52.370;4.832;2023-02-15T03:05:39;102845.84;;;4.74;80.22
77452;BME280;66537;52.370;4.832;2023-02-15T03:08:07;102830.19;;;4.65;80.08
77452;BME280;66537;52.370;4.832;2023-02-15T03:10:35;102835.41;;;4.68;79.65
77452;BME280;66537;52.370;4.832;2023-02-15T03:13:02;102837.31;;;4.75;79.72
77452;BME280;66537;52.370;4.832;2023-02-15T03:15:37;102832.75;;;4.65;79.80
77452;BME280;66537;52.370;4.832;2023-02-15T03:18:25;102851.56;;;4.66;79.66
77452;BME280;66537;52.370;4.832;2023-02-15T03:20:52;102831.84;;;4.63;80.18
77452;BME280;66537;52.370;4.832;2023-02-15T03:23:23;102847.25;;;4.65;79.77
77452;BME280;66537;52.370;4.832;2023-02-15T03:25:56;102834.31;;;4.58;79.99
77452;BME280;66537;52.370;4.832;2023-02-15T03:28:27;102834.31;;;4.58;80.04
77452;BME280;66537;52.370;4.832;2023-02-15T03:30:55;102830.75;;;4.55;79.91
77452;BME280;66537;52.370;4.832;2023-02-15T03:33:23;102842.84;;;4.59;79.87
77452;BME280;66537;52.370;4.832;2023-02-15T03:36:00;102842.81;;;4.57;80.11
77452;BME280;66537;52.370;4.832;2023-02-15T03:38:36;102834.97;;;4.53;80.03
77452;BME280;66537;52.370;4.832;2023-02-15T03:41:06;102824.66;;;4.50;79.80
77452;BME280;66537;52.370;4.832;2023-02-15T03:44:02;102823.53;;;4.40;79.89
77452;BME280;66537;52.370;4.832;2023-02-15T03:46:35;102819.91;;;4.34;80.24
77452;BME280;66537;52.370;4.832;2023-02-15T03:49:27;102823.47;;;4.37;80.34
77452;BME280;66537;52.370;4.832;2023-02-15T03:51:57;102817.41;;;4.35;80.43
77452;BME280;66537;52.370;4.832;2023-02-15T03:54:31;102813.09;;;4.34;80.39
77452;BME280;66537;52.370;4.832;2023-02-15T03:57:17;102806.34;;;4.36;80.31
77452;BME280;66537;52.370;4.832;2023-02-15T04:00:09;102804.59;;;4.35;80.66
77452;BME280;66537;52.370;4.832;2023-02-15T04:03:15;102803.84;;;4.39;80.03
77452;BME280;66537;52.370;4.832;2023-02-15T04:05:45;102796.94;;;4.35;80.24
77452;BME280;66537;52.370;4.832;2023-02-15T04:08:11;102797.00;;;4.38;80.37
77452;BME280;66537;52.370;4.832;2023-02-15T04:10:36;102790.22;;;4.40;80.22
77452;BME280;66537;52.370;4.832;2023-02-15T04:13:18;102794.41;;;4.37;80.75
77452;BME280;66537;52.370;4.832;2023-02-15T04:15:43;102798.66;;;4.36;80.24
77452;BME280;66537;52.370;4.832;2023-02-15T04:18:28;102798.84;;;4.44;79.71
77452;BME280;66537;52.370;4.832;2023-02-15T04:21:11;102796.94;;;4.35;80.43
77452;BME280;66537;52.370;4.832;2023-02-15T04:23:55;102792.72;;;4.37;79.69
77452;BME280;66537;52.370;4.832;2023-02-15T04:26:39;102795.03;;;4.30;80.03
77452;BME280;66537;52.370;4.832;2023-02-15T04:29:04;102788.16;;;4.27;79.92
77452;BME280;66537;52.370;4.832;2023-02-15T04:31:30;102775.28;;;4.26;80.14
77452;BME280;66537;52.370;4.832;2023-02-15T04:33:55;102789.00;;;4.28;79.68
77452;BME280;66537;52.370;4.832;2023-02-15T04:36:20;102779.41;;;4.21;80.14
77452;BME280;66537;52.370;4.832;2023-02-15T04:38:46;102774.25;;;4.19;80.09
77452;BME280;66537;52.370;4.832;2023-02-15T04:41:11;102764.78;;;4.17;80.09
77452;BME280;66537;52.370;4.832;2023-02-15T04:43:38;102772.69;;;4.24;80.14
77452;BME280;66537;52.370;4.832;2023-02-15T04:46:03;102774.25;;;4.19;80.59
77452;BME280;66537;52.370;4.832;2023-02-15T04:48:29;102761.31;;;4.15;80.27
77452;BME280;66537;52.370;4.832;2023-02-15T04:50:54;102771.91;;;4.27;80.16
77452;BME280;66537;52.370;4.832;2023-02-15T04:53:20;102774.25;;;4.19;80.46
77452;BME280;66537;52.370;4.832;2023-02-15T04:55:45;102768.88;;;4.10;80.29
77452;BME280;66537;52.370;4.832;2023-02-15T04:58:10;102767.19;;;4.12;80.65
77452;BME280;66537;52.370;4.832;2023-02-15T05:00:36;102769.75;;;4.12;80.71
77452;BME280;66537;52.370;4.832;2023-02-15T05:03:01;102770.78;;;4.17;80.60
77452;BME280;66537;52.370;4.832;2023-02-15T05:05:27;102761.06;;;4.06;80.95
77452;BME280;66537;52.370;4.832;2023-02-15T05:07:52;102771.72;;;4.21;81.25
77452;BME280;66537;52.370;4.832;2023-02-15T05:10:18;102756.22;;;4.16;82.18
77452;BME280;66537;52.370;4.832;2023-02-15T05:12:43;102759.09;;;4.27;82.31
77452;BME280;66537;52.370;4.832;2023-02-15T05:15:08;102766.91;;;4.31;81.54
77452;BME280;66537;52.370;4.832;2023-02-15T05:17:35;102764.22;;;4.27;81.25
77452;BME280;66537;52.370;4.832;2023-02-15T05:20:01;102757.56;;;4.33;80.80
77452;BME280;66537;52.370;4.832;2023-02-15T05:22:26;102759.31;;;4.34;80.83
77452;BME280;66537;52.370;4.832;2023-02-15T05:24:51;102761.91;;;4.36;80.34
77452;BME280;66537;52.370;4.832;2023-02-15T05:27:35;102762.69;;;4.33;80.53
77452;BME280;66537;52.370;4.832;2023-02-15T05:30:19;102760.91;;;4.31;80.68
77452;BME280;66537;52.370;4.832;2023-02-15T05:32:44;102761.66;;;4.27;81.59
77452;BME280;66537;52.370;4.832;2023-02-15T05:35:14;102756.53;;;4.27;81.88
77452;BME280;66537;52.370;4.832;2023-02-15T05:37:40;102752.28;;;4.27;82.30
77452;BME280;66537;52.370;4.832;2023-02-15T05:40:06;102749.00;;;4.33;81.31
77452;BME280;66537;52.370;4.832;2023-02-15T05:42:32;102758.38;;;4.32;81.34
77452;BME280;66537;52.370;4.832;2023-02-15T05:44:57;102756.75;;;4.34;81.59
77452;BME280;66537;52.370;4.832;2023-02-15T05:47:22;102743.75;;;4.28;81.41
77452;BME280;66537;52.370;4.832;2023-02-15T05:49:48;102751.47;;;4.30;81.99
77452;BME280;66537;52.370;4.832;2023-02-15T05:52:13;102756.78;;;4.36;81.61
77452;BME280;66537;52.370;4.832;2023-02-15T05:54:38;102757.63;;;4.35;81.70
77452;BME280;66537;52.370;4.832;2023-02-15T05:57:04;102760.16;;;4.33;81.91
77452;BME280;66537;52.370;4.832;2023-02-15T05:59:29;102755.13;;;4.38;81.58
77452;BME280;66537;52.370;4.832;2023-02-15T06:01:54;102745.97;;;4.47;80.98
77452;BME280;66537;52.370;4.832;2023-02-15T06:04:20;102753.47;;;4.40;80.82
77452;BME280;66537;52.370;4.832;2023-02-15T06:06:45;102736.22;;;4.33;80.90
77452;BME280;66537;52.370;4.832;2023-02-15T06:09:11;102736.03;;;4.27;81.07
77452;BME280;66537;52.370;4.832;2023-02-15T06:11:37;102731.78;;;4.27;81.14
77452;BME280;66537;52.370;4.832;2023-02-15T06:14:02;102746.69;;;4.42;81.05
77452;BME280;66537;52.370;4.832;2023-02-15T06:16:28;102739.34;;;4.23;81.04
77452;BME280;66537;52.370;4.832;2023-02-15T06:18:53;102736.09;;;4.30;81.61
77452;BME280;66537;52.370;4.832;2023-02-15T06:21:18;102729.16;;;4.26;81.63
77452;BME280;66537;52.370;4.832;2023-02-15T06:23:44;102742.22;;;4.33;81.42
77452;BME280;66537;52.370;4.832;2023-02-15T06:26:09;102730.13;;;4.29;81.03
77452;BME280;66537;52.370;4.832;2023-02-15T06:28:34;102736.09;;;4.30;81.19
77452;BME280;66537;52.370;4.832;2023-02-15T06:31:00;102739.69;;;4.05;81.52
77452;BME280;66537;52.370;4.832;2023-02-15T06:33:25;102740.06;;;4.19;82.24
77452;BME280;66537;52.370;4.832;2023-02-15T06:35:51;102735.09;;;4.23;82.15
77452;BME280;66537;52.370;4.832;2023-02-15T06:38:16;102743.72;;;4.27;81.91
77452;BME280;66537;52.370;4.832;2023-02-15T06:40:42;102737.69;;;4.25;81.81
77452;BME280;66537;52.370;4.832;2023-02-15T06:43:07;102741.09;;;4.24;81.86
77452;BME280;66537;52.370;4.832;2023-02-15T06:45:33;102741.31;;;4.33;81.40
77452;BME280;66537;52.370;4.832;2023-02-15T06:47:58;102730.88;;;4.25;81.00
77452;BME280;66537;52.370;4.832;2023-02-15T06:50:23;102735.78;;;4.18;81.45
77452;BME280;66537;52.370;4.832;2023-02-15T06:52:49;102737.88;;;4.32;81.49
77452;BME280;66537;52.370;4.832;2023-02-15T06:55:14;102744.69;;;4.32;81.33
77452;BME280;66537;52.370;4.832;2023-02-15T06:57:40;102741.41;;;4.36;81.15
77452;BME280;66537;52.370;4.832;2023-02-15T07:00:05;102743.16;;;4.37;80.77
77452;BME280;66537;52.370;4.832;2023-02-15T07:02:31;102742.94;;;4.29;81.14
77452;BME280;66537;52.370;4.832;2023-02-15T07:04:57;102728.56;;;4.34;81.18
77452;BME280;66537;52.370;4.832;2023-02-15T07:07:22;102739.91;;;4.44;80.96
77452;BME280;66537;52.370;4.832;2023-02-15T07:09:47;102731.44;;;4.46;81.34
77452;BME280;66537;52.370;4.832;2023-02-15T07:12:13;102726.38;;;4.49;81.05
77452;BME280;66537;52.370;4.832;2023-02-15T07:14:57;102734.16;;;4.52;80.66
77452;BME280;66537;52.370;4.832;2023-02-15T07:17:23;102726.38;;;4.49;80.97
77452;BME280;66537;52.370;4.832;2023-02-15T07:19:48;102724.91;;;4.57;81.10
77452;BME280;66537;52.370;4.832;2023-02-15T07:22:14;102721.59;;;4.62;81.21
77452;BME280;66537;52.370;4.832;2023-02-15T07:24:39;102721.72;;;4.66;80.81
77452;BME280;66537;52.370;4.832;2023-02-15T07:27:06;102726.03;;;4.69;80.65
77452;BME280;66537;52.370;4.832;2023-02-15T07:29:32;102715.78;;;4.69;80.76
77452;BME280;66537;52.370;4.832;2023-02-15T07:31:57;102722.63;;;4.68;80.75
77452;BME280;66537;52.370;4.832;2023-02-15T07:34:22;102717.59;;;4.73;80.85
77452;BME280;66537;52.370;4.832;2023-02-15T07:36:50;102708.00;;;4.64;80.87
77452;BME280;66537;52.370;4.832;2023-02-15T07:39:16;102707.38;;;4.74;80.63
77452;BME280;66537;52.370;4.832;2023-02-15T07:41:41;102703.81;;;4.69;80.46
77452;BME280;66537;52.370;4.832;2023-02-15T07:44:11;102707.69;;;4.53;80.67
77452;BME280;66537;52.370;4.832;2023-02-15T07:46:37;102700.34;;;4.67;81.48
77452;BME280;66537;52.370;4.832;2023-02-15T07:49:02;102693.84;;;4.80;80.76
77452;BME280;66537;52.370;4.832;2023-02-15T07:51:28;102692.38;;;4.89;80.50
77452;BME280;66537;52.370;4.832;2023-02-15T07:53:54;102694.41;;;4.68;80.57
77452;BME280;66537;52.370;4.832;2023-02-15T07:56:20;102687.28;;;4.91;80.27
77452;BME280;66537;52.370;4.832;2023-02-15T07:58:45;102676.28;;;4.96;79.88
77452;BME280;66537;52.370;4.832;2023-02-15T08:01:29;102666.94;;;4.98;79.31
77452;BME280;66537;52.370;4.832;2023-02-15T08:03:55;102676.78;;;5.17;79.04
77452;BME280;66537;52.370;4.832;2023-02-15T08:06:25;102679.44;;;5.20;78.99
77452;BME280;66537;52.370;4.832;2023-02-15T08:08:50;102660.47;;;5.15;78.68
77452;BME280;66537;52.370;4.832;2023-02-15T08:13:59;102668.03;;;5.48;78.15
77452;BME280;66537;52.370;4.832;2023-02-15T08:16:54;102671.28;;;5.39;77.84
77452;BME280;66537;52.370;4.832;2023-02-15T08:19:26;102670.06;;;5.61;78.08
77452;BME280;66537;52.370;4.832;2023-02-15T08:21:56;102663.41;;;5.71;77.82
77452;BME280;66537;52.370;4.832;2023-02-15T08:24:24;102658.41;;;5.78;77.42
77452;BME280;66537;52.370;4.832;2023-02-15T08:26:50;102667.44;;;6.00;76.94
77452;BME280;66537;52.370;4.832;2023-02-15T08:29:18;102665.66;;;5.96;76.47
77452;BME280;66537;52.370;4.832;2023-02-15T08:31:44;102669.91;;;5.95;75.75
77452;BME280;66537;52.370;4.832;2023-02-15T08:34:14;102678.25;;;5.84;75.61
77452;BME280;66537;52.370;4.832;2023-02-15T08:36:40;102669.22;;;6.04;75.42
77452;BME280;66537;52.370;4.832;2023-02-15T08:39:06;102672.22;;;6.26;75.17
77452;BME280;66537;52.370;4.832;2023-02-15T08:41:34;102665.69;;;6.45;74.86
77452;BME280;66537;52.370;4.832;2023-02-15T08:44:01;102676.31;;;6.65;74.47
77452;BME280;66537;52.370;4.832;2023-02-15T08:46:29;102673.28;;;6.91;73.50
77452;BME280;66537;52.370;4.832;2023-02-15T08:48:56;102680.59;;;7.19;72.44
77452;BME280;66537;52.370;4.832;2023-02-15T08:51:23;102667.94;;;7.36;72.31
77452;BME280;66537;52.370;4.832;2023-02-15T08:53:52;102676.75;;;7.52;70.46
77452;BME280;66537;52.370;4.832;2023-02-15T08:56:20;102678.50;;;7.53;70.59
77452;BME280;66537;52.370;4.832;2023-02-15T08:58:46;102666.25;;;7.35;70.40
77452;BME280;66537;52.370;4.832;2023-02-15T09:01:20;102680.81;;;7.36;69.07
77452;BME280;66537;52.370;4.832;2023-02-15T09:03:48;102677.31;;;7.98;67.70
77452;BME280;66537;52.370;4.832;2023-02-15T09:06:16;102668.28;;;8.35;67.45
77452;BME280;66537;52.370;4.832;2023-02-15T09:08:41;102658.44;;;8.91;66.09
77452;BME280;66537;52.370;4.832;2023-02-15T09:11:12;102656.94;;;9.23;65.12
77452;BME280;66537;52.370;4.832;2023-02-15T09:13:39;102667.47;;;9.67;63.74
77452;BME280;66537;52.370;4.832;2023-02-15T09:16:07;102662.41;;;9.92;62.49
77452;BME280;66537;52.370;4.832;2023-02-15T09:18:35;102670.84;;;9.51;62.87
77452;BME280;66537;52.370;4.832;2023-02-15T09:21:13;102673.19;;;9.07;64.65
77452;BME280;66537;52.370;4.832;2023-02-15T09:23:40;102667.09;;;9.02;63.76
77452;BME280;66537;52.370;4.832;2023-02-15T09:26:08;102669.16;;;9.56;64.00
77452;BME280;66537;52.370;4.832;2023-02-15T09:28:34;102676.59;;;9.03;63.33
77452;BME280;66537;52.370;4.832;2023-02-15T09:31:13;102670.75;;;9.37;63.85
77452;BME280;66537;52.370;4.832;2023-02-15T09:33:40;102663.81;;;9.24;64.26
77452;BME280;66537;52.370;4.832;2023-02-15T09:38:43;102654.56;;;9.76;62.30
77452;BME280;66537;52.370;4.832;2023-02-15T09:44:21;102651.28;;;10.90;62.01
77452;BME280;66537;52.370;4.832;2023-02-15T09:55:07;102652.88;;;11.48;59.62
77452;BME280;66537;52.370;4.832;2023-02-15T10:00:31;102650.03;;;12.07;58.34
77452;BME280;66537;52.370;4.832;2023-02-15T10:20:12;102635.22;;;13.23;53.30
77452;BME280;66537;52.370;4.832;2023-02-15T10:26:22;102653.38;;;13.27;54.96
77452;BME280;66537;52.370;4.832;2023-02-15T10:28:54;102648.94;;;13.35;54.28
77452;BME280;66537;52.370;4.832;2023-02-15T10:34:17;102650.66;;;13.36;55.31
77452;BME280;66537;52.370;4.832;2023-02-15T10:36:55;102650.47;;;13.51;55.01
77452;BME280;66537;52.370;4.832;2023-02-15T10:50:46;102617.41;;;12.82;54.62
77452;BME280;66537;52.370;4.832;2023-02-15T10:56:00;102616.66;;;12.73;55.72
77452;BME280;66537;52.370;4.832;2023-02-15T10:59:14;102615.19;;;12.41;55.78
77452;BME280;66537;52.370;4.832;2023-02-15T11:01:47;102623.31;;;11.96;57.08
77452;BME280;66537;52.370;4.832;2023-02-15T11:06:46;102607.72;;;11.95;56.94
77452;BME280;66537;52.370;4.832;2023-02-15T11:09:14;102611.16;;;12.01;57.45
77452;BME280;66537;52.370;4.832;2023-02-15T11:11:45;102596.53;;;11.94;56.39
77452;BME280;66537;52.370;4.832;2023-02-15T11:14:38;102590.56;;;11.78;56.67
77452;BME280;66537;52.370;4.832;2023-02-15T11:17:15;102586.22;;;11.77;57.50
77452;BME280;66537;52.370;4.832;2023-02-15T11:22:37;102572.44;;;11.69;56.41
77452;BME280;66537;52.370;4.832;2023-02-15T11:25:16;102567.19;;;11.86;57.36
77452;BME280;66537;52.370;4.832;2023-02-15T11:27:42;102560.06;;;12.11;57.06
77452;BME280;66537;52.370;4.832;2023-02-15T11:30:12;102568.72;;;12.11;54.82
77452;BME280;66537;52.370;4.832;2023-02-15T11:32:46;102566.34;;;11.75;56.40
77452;BME280;66537;52.370;4.832;2023-02-15T11:37:54;102560.91;;;12.17;55.72
77452;BME280;66537;52.370;4.832;2023-02-15T11:40:28;102560.13;;;12.05;57.13
77452;BME280;66537;52.370;4.832;2023-02-15T11:43:05;102566.91;;;12.22;55.79
77452;BME280;66537;52.370;4.832;2023-02-15T11:45:33;102578.34;;;11.96;56.72
77452;BME280;66537;52.370;4.832;2023-02-15T11:48:00;102585.50;;;11.47;58.04
77452;BME280;66537;52.370;4.832;2023-02-15T11:50:29;102583.06;;;11.11;58.82
77452;BME280;66537;52.370;4.832;2023-02-15T11:53:10;102571.03;;;10.92;59.52
77452;BME280;66537;52.370;4.832;2023-02-15T11:55:37;102574.50;;;10.72;60.26
77452;BME280;66537;52.370;4.832;2023-02-15T11:58:13;102565.06;;;10.52;60.29
77452;BME280;66537;52.370;4.832;2023-02-15T12:00:47;102560.59;;;11.20;60.16
77452;BME280;66537;52.370;4.832;2023-02-15T12:03:19;102565.72;;;11.34;59.08
77452;BME280;66537;52.370;4.832;2023-02-15T12:05:46;102561.47;;;11.10;58.93
77452;BME280;66537;52.370;4.832;2023-02-15T12:08:19;102552.63;;;11.55;59.76
77452;BME280;66537;52.370;4.832;2023-02-15T12:10:57;102543.41;;;10.95;59.40
77452;BME280;66537;52.370;4.832;2023-02-15T12:13:25;102539.09;;;10.91;60.20
77452;BME280;66537;52.370;4.832;2023-02-15T12:15:56;102532.81;;;11.46;59.03
77452;BME280;66537;52.370;4.832;2023-02-15T12:18:35;102516.00;;;12.06;57.88
77452;BME280;66537;52.370;4.832;2023-02-15T12:21:09;102509.72;;;12.31;57.44
77452;BME280;66537;52.370;4.832;2023-02-15T12:23:43;102515.94;;;12.14;57.34
77452;BME280;66537;52.370;4.832;2023-02-15T12:26:11;102513.31;;;12.17;57.27
77452;BME280;66537;52.370;4.832;2023-02-15T12:28:42;102525.16;;;12.45;56.97
77452;BME280;66537;52.370;4.832;2023-02-15T12:31:20;102537.84;;;11.76;57.88
77452;BME280;66537;52.370;4.832;2023-02-15T12:33:46;102528.47;;;11.48;58.75
77452;BME280;66537;52.370;4.832;2023-02-15T12:41:32;102535.56;;;11.07;60.93
77452;BME280;66537;52.370;4.832;2023-02-15T12:44:07;102536.53;;;10.74;61.38
77452;BME280;66537;52.370;4.832;2023-02-15T12:46:40;102535.66;;;10.86;62.52
77452;BME280;66537;52.370;4.832;2023-02-15T12:54:47;102536.53;;;10.83;61.08
77452;BME280;66537;52.370;4.832;2023-02-15T13:00:05;102533.97;;;10.70;62.96
77452;BME280;66537;52.370;4.832;2023-02-15T13:05:26;102522.69;;;10.97;61.79
77452;BME280;66537;52.370;4.832;2023-02-15T13:07:56;102521.06;;;10.59;61.66
77452;BME280;66537;52.370;4.832;2023-02-15T13:10:31;102522.81;;;10.32;62.76
77452;BME280;66537;52.370;4.832;2023-02-15T13:12:58;102510.75;;;10.25;63.23
77452;BME280;66537;52.370;4.832;2023-02-15T13:15:34;102515.03;;;10.38;64.23
77452;BME280;66537;52.370;4.832;2023-02-15T13:18:01;102515.91;;;10.50;62.79
77452;BME280;66537;52.370;4.832;2023-02-15T13:20:28;102510.72;;;10.56;63.48
77452;BME280;66537;52.370;4.832;2023-02-15T13:22:59;102509.88;;;10.53;62.84
77452;BME280;66537;52.370;4.832;2023-02-15T13:25:30;102514.13;;;10.78;62.96
77452;BME280;66537;52.370;4.832;2023-02-15T13:28:02;102502.88;;;10.85;62.68
77452;BME280;66537;52.370;4.832;2023-02-15T13:30:31;102506.44;;;10.34;63.85
77452;BME280;66537;52.370;4.832;2023-02-15T13:35:50;102495.19;;;10.58;62.83
77452;BME280;66537;52.370;4.832;2023-02-15T13:38:39;102491.75;;;10.38;63.74
77452;BME280;66537;52.370;4.832;2023-02-15T13:41:14;102491.72;;;10.59;63.82
77452;BME280;66537;52.370;4.832;2023-02-15T13:43:50;102487.31;;;10.88;62.59
77452;BME280;66537;52.370;4.832;2023-02-15T13:46:34;102487.34;;;10.85;62.62
77452;BME280;66537;52.370;4.832;2023-02-15T13:52:27;102471.72;;;11.00;61.99
77452;BME280;66537;52.370;4.832;2023-02-15T13:58:04;102467.44;;;10.96;61.43
77452;BME280;66537;52.370;4.832;2023-02-15T14:06:08;102470.06;;;10.85;61.65
77452;BME280;66537;52.370;4.832;2023-02-15T14:14:15;102454.50;;;10.93;60.60
77452;BME280;66537;52.370;4.832;2023-02-15T14:17:16;102457.13;;;10.84;61.35
77452;BME280;66537;52.370;4.832;2023-02-15T14:19:52;102458.84;;;10.89;61.08
77452;BME280;66537;52.370;4.832;2023-02-15T14:25:13;102457.88;;;11.07;60.71
77452;BME280;66537;52.370;4.832;2023-02-15T14:30:28;102465.72;;;10.94;59.67
77452;BME280;66537;52.370;4.832;2023-02-15T14:32:59;102465.75;;;10.84;60.68
77452;BME280;66537;52.370;4.832;2023-02-15T14:35:29;102470.94;;;10.81;60.38
77452;BME280;66537;52.370;4.832;2023-02-15T14:38:06;102457.09;;;10.90;60.51
77452;BME280;66537;52.370;4.832;2023-02-15T14:46:00;102455.44;;;10.74;60.28
77452;BME280;66537;52.370;4.832;2023-02-15T14:48:35;102469.28;;;10.70;60.94
77452;BME280;66537;52.370;4.832;2023-02-15T14:51:03;102465.78;;;10.77;60.59
77452;BME280;66537;52.370;4.832;2023-02-15T14:58:37;102458.03;;;10.74;60.77
77452;BME280;66537;52.370;4.832;2023-02-15T15:01:07;102459.78;;;10.63;60.82
77452;BME280;66537;52.370;4.832;2023-02-15T15:03:34;102466.72;;;10.52;61.14
77452;BME280;66537;52.370;4.832;2023-02-15T15:06:04;102451.22;;;10.46;61.38
77452;BME280;66537;52.370;4.832;2023-02-15T15:08:40;102452.13;;;10.28;61.57
77452;BME280;66537;52.370;4.832;2023-02-15T15:13:58;102460.69;;;10.51;61.73
77452;BME280;66537;52.370;4.832;2023-02-15T15:18:49;102457.28;;;10.34;62.71
77452;BME280;66537;52.370;4.832;2023-02-15T15:44:06;102421.06;;;10.33;62.93
77452;BME280;66537;52.370;4.832;2023-02-15T15:46:54;102418.47;;;10.39;63.52
77452;BME280;66537;52.370;4.832;2023-02-15T15:49:28;102427.97;;;10.20;63.24
77452;BME280;66537;52.370;4.832;2023-02-15T15:51:59;102429.72;;;10.21;63.21
77452;BME280;66537;52.370;4.832;2023-02-15T15:54:26;102410.78;;;10.18;63.82
77452;BME280;66537;52.370;4.832;2023-02-15T15:57:00;102416.75;;;10.24;63.38
77452;BME280;66537;52.370;4.832;2023-02-15T15:59:29;102417.63;;;10.20;63.38
77452;BME280;66537;52.370;4.832;2023-02-15T16:01:56;102416.78;;;10.15;63.48
77452;BME280;66537;52.370;4.832;2023-02-15T16:04:33;102415.94;;;10.13;62.89
77452;BME280;66537;52.370;4.832;2023-02-15T16:10:00;102415.09;;;10.10;63.50